Airfield :
LOGIN :

Register | Disclaimer

   EN    FR    IT 

 










Legend :    VFR   Marginal VFR   IFR   Intensive IFR   Very Intensive IFR
Visi :
Ceiling :
>= 8 km
>= 3000ft
5 to 8 km
1000 to 3000 ft
1500m to 5 km
500 to 1000 ft
800 to 1500m
200 to 500 ft
< 800m
< 200 ft
Symbols :   Thunderstorms  Fog  Heavy snow  Heavy precipitations  Wind > 20 kt
SIGMETs :     Misc.  Thunderstorms  Icing  Turbulence  Mountain Waves  Volcanic Ashes






- Airport Elevation : 33 ft
- IATA code : MHZ


EGUN - RAF Mildenhall

CURRENT METAR :
  • 201229Z AUTO 20020G30KT 9999 BKN016 OVC024 11/11 A2911 RMK AO2 RAB1156E14 SLP861 FZRANO $

EXPIRED METARs :
  • 201214Z AUTO 20018G30KT 9999 OVC017 11/11 A2912 RMK AO2 RAB1156E14 SLP864 FZRANO $
  • 201157Z AUTO 20020G25KT 9999 -RA OVC017 11/11 A2912 RMK AO2 RAB56 SLP864 FZRANO $
  • 201146Z AUTO 20017G27KT 9999 OVC017 11/11 A2913 RMK AO2 CIG 015 RWY11 SLP868 FZRANO $
  • 201136Z AUTO 20020G27KT 9999 OVC015 11/11 A2913 RMK AO2 SLP868 FZRANO $
  • 201116Z AUTO 20018G25KT 9999 OVC014 11/11 A2914 RMK AO2 SLP871 FZRANO $
  • 201056Z AUTO 19018G23KT 9999 OVC016 11/11 A2915 RMK AO2 PK WND 19029/04 RAE20 SLP874 P0000 T01060106 FZRANO $
  • 201020Z AUTO 20017G26KT 9999 OVC016 10/10 A2916 RMK AO2 RAE20 OVC V BKN SLP878 FZRANO $
  • 201001Z AUTO 20021G26KT 9999 -RA BKN017 BKN021 11/11 A2917 RMK AO2 CIG 016 RWY29 SLP881 FZRANO $
  • 200943Z AUTO 20020G29KT 9999 -RA BKN018 OVC024 11/11 A2917 RMK AO2 RAB23 BKN V OVC CIG 016 RWY11 SLP881 FZRANO $

TAF TAF EGUN
Valid from the 20 at 12:00 until the 21 at 18:00 UTC


2012/2118 20025G35KT 8000 -SHRA BKN010 510003 QNH2870INS
BECMG 2100/2101 24025G35KT 9999 NSW BKN015 510003 QNH2886INS
TEMPO 2101/2104 8000 -SHRA
BECMG 2103/2104 24025G35KT 9999 SCT020 510003 QNH2888INS
BECMG 2116/2117 25015G25KT 9999 SCT030 QNH2906INS TX11/2012Z TN04/2103Z



MET'MAP, your aeronautical weather chart ! - Copyright ORBIFLY December 2007 - Disclaimer

ORBIFLY MET'MAP TEAM :

Programming & Development : Alexandra Zaïnal
Concept & original design : Baudouin d'Aumeries
Assistance for programming : Marc-Olivier Méhu
Technical & hardware support : Manuel Goepfert

Contact : metmap@orbifly.com




SOURCES & CREDITS :

   NOAA